Time;durP1;ratioP1;P1;durP2;ratioP2;P2;SDS_P1;SDS_P2;PMS_P1;PMS_P2;Temp;Humidity;BMP_temperature;BMP_pressure;BME280_temperature;BME280_humidity;BME280_pressure;Samples;Min_cycle;Max_cycle;Signal;HPM_P1;HPM_P2
2021/09/29 00:01:24;;;;;;;29.98;17.00;;;;;;;12.10;100.00;101361.75;5042818;28;20049;-68
2021/09/29 00:03:51;;;;;;;22.92;16.10;;;;;;;12.00;100.00;101362.34;5045331;28;20128;-69
2021/09/29 00:06:19;;;;;;;24.58;17.50;;;;;;;12.06;100.00;101359.34;5043988;28;20139;-68
2021/09/29 00:08:46;;;;;;;24.55;16.67;;;;;;;12.10;100.00;101361.75;5042156;28;20119;-69
2021/09/29 00:11:13;;;;;;;28.23;16.95;;;;;;;12.28;100.00;101357.25;5045136;28;20045;-68
2021/09/29 00:13:40;;;;;;;28.25;16.27;;;;;;;12.10;100.00;101358.25;5042659;28;20507;-69
2021/09/29 00:16:07;;;;;;;30.85;17.38;;;;;;;12.02;100.00;101361.34;5044167;28;20559;-67
2021/09/29 00:18:35;;;;;;;32.75;15.50;;;;;;;12.00;100.00;101357.06;5040562;28;20888;-67
2021/09/29 00:21:02;;;;;;;28.30;15.70;;;;;;;12.02;100.00;101352.53;5044720;28;20043;-68
2021/09/29 00:23:29;;;;;;;30.65;17.98;;;;;;;11.95;100.00;101352.03;5045785;28;20816;-68
2021/09/29 00:25:56;;;;;;;27.70;15.90;;;;;;;11.86;100.00;101345.44;5042258;28;20555;-68
2021/09/29 00:28:23;;;;;;;24.63;15.95;;;;;;;11.80;100.00;101345.75;5045798;28;20590;-68
2021/09/29 00:30:52;;;;;;;28.42;15.88;;;;;;;11.92;100.00;101344.25;5044235;28;20111;-70
2021/09/29 00:33:20;;;;;;;24.58;14.88;;;;;;;11.96;100.00;101337.03;5040012;28;20135;-68
2021/09/29 00:35:47;;;;;;;23.38;14.05;;;;;;;12.08;100.00;101339.88;5045071;28;20144;-68
2021/09/29 00:38:14;;;;;;;25.35;13.75;;;;;;;12.11;100.00;101339.72;5045878;28;20049;-67
2021/09/29 00:40:42;;;;;;;20.30;13.05;;;;;;;12.05;100.00;101334.75;5046329;28;20653;-67
2021/09/29 00:43:09;;;;;;;23.65;14.82;;;;;;;11.87;100.00;101325.19;5042758;28;20151;-69
2021/09/29 00:45:36;;;;;;;19.77;14.75;;;;;;;11.76;100.00;101336.28;5043155;28;20053;-66
2021/09/29 00:48:03;;;;;;;24.27;14.55;;;;;;;11.73;100.00;101323.25;5039281;28;20049;-67
2021/09/29 00:50:31;;;;;;;26.65;15.60;;;;;;;11.88;100.00;101322.44;5042756;28;20512;-66
2021/09/29 00:52:58;;;;;;;24.80;14.40;;;;;;;11.86;100.00;101318.22;5043883;28;20077;-69
2021/09/29 00:55:25;;;;;;;23.83;16.83;;;;;;;11.76;100.00;101315.19;5044448;28;20067;-69
2021/09/29 00:57:52;;;;;;;29.38;17.05;;;;;;;11.61;100.00;101311.53;5045688;28;20065;-68
2021/09/29 01:00:20;;;;;;;31.02;18.15;;;;;;;11.75;100.00;101310.84;5042522;28;20071;-68
2021/09/29 01:02:47;;;;;;;29.10;17.42;;;;;;;11.78;100.00;101310.66;5045870;28;20400;-67
2021/09/29 01:05:15;;;;;;;31.17;18.88;;;;;;;11.70;100.00;101302.28;5039987;28;20052;-67
2021/09/29 01:08:02;;;;;;;26.65;17.13;;;;;;;11.59;100.00;101294.97;5040024;28;20053;-67
2021/09/29 01:10:51;;;;;;;26.50;16.75;;;;;;;11.55;100.00;101297.84;5038216;28;20069;-69
2021/09/29 01:13:34;;;;;;;29.60;15.60;;;;;;;11.59;100.00;101288.84;5047361;28;20080;-68
2021/09/29 01:16:03;;;;;;;28.92;16.60;;;;;;;11.66;100.00;101288.44;5037518;28;20068;-67
2021/09/29 01:18:34;;;;;;;24.10;15.80;;;;;;;11.82;100.00;101285.84;5022799;28;20407;-68
2021/09/29 01:21:04;;;;;;;32.95;16.92;;;;;;;11.67;100.00;101276.09;5042462;28;20087;-67
2021/09/29 01:24:09;;;;;;;34.00;16.98;;;;;;;11.61;100.00;101284.31;5022448;28;20069;-68
2021/09/29 01:26:39;;;;;;;31.27;18.48;;;;;;;11.54;100.00;101285.59;4981629;28;20047;-67
2021/09/29 01:29:12;;;;;;;23.30;15.43;;;;;;;11.72;100.00;101278.50;5026054;28;20049;-69
2021/09/29 01:31:39;;;;;;;25.80;17.40;;;;;;;11.73;100.00;101274.91;5041600;28;20045;-68
2021/09/29 01:34:08;;;;;;;28.73;17.95;;;;;;;11.63;100.00;101280.69;5038887;28;20152;-68
2021/09/29 01:36:37;;;;;;;37.75;18.50;;;;;;;11.66;100.00;101267.34;5026517;28;20140;-69
2021/09/29 01:39:08;;;;;;;33.53;17.67;;;;;;;11.65;100.00;101262.13;5041062;28;20533;-69
2021/09/29 01:41:38;;;;;;;31.63;18.30;;;;;;;11.61;100.00;101265.84;5043500;28;20140;-69
2021/09/29 01:44:06;;;;;;;32.80;18.05;;;;;;;11.76;100.00;101265.06;5040332;28;20076;-69
2021/09/29 01:46:33;;;;;;;37.90;18.50;;;;;;;11.84;100.00;101265.53;5043018;28;20049;-68
2021/09/29 01:49:15;;;;;;;35.50;17.67;;;;;;;11.85;100.00;101258.47;5041791;28;20114;-69
2021/09/29 01:51:48;;;;;;;29.73;15.50;;;;;;;12.00;100.00;101265.53;5044605;28;20049;-69
2021/09/29 01:54:16;;;;;;;30.92;15.85;;;;;;;12.04;100.00;101259.16;5024162;28;20468;-68
2021/09/29 01:56:45;;;;;;;27.10;14.52;;;;;;;12.37;100.00;101253.78;5040827;28;20063;-68
2021/09/29 01:59:13;;;;;;;25.13;13.43;;;;;;;12.47;100.00;101258.53;5043323;28;20056;-69
2021/09/29 02:01:41;;;;;;;22.63;13.57;;;;;;;12.37;100.00;101255.59;5052002;28;20135;-67
2021/09/29 02:04:10;;;;;;;24.23;13.48;;;;;;;12.41;100.00;101249.19;5040053;28;20717;-69
2021/09/29 02:06:44;;;;;;;20.90;12.80;;;;;;;12.38;100.00;101250.22;5041518;28;20118;-69
2021/09/29 02:09:12;;;;;;;25.73;12.45;;;;;;;12.36;100.00;101243.31;5038132;28;20052;-70
2021/09/29 02:11:39;;;;;;;20.25;12.68;;;;;;;12.43;100.00;101242.06;5044686;28;20056;-67
2021/09/29 02:14:07;;;;;;;21.42;12.40;;;;;;;12.47;100.00;101251.47;5035877;28;20057;-68
2021/09/29 02:16:35;;;;;;;20.25;12.27;;;;;;;12.48;100.00;101247.91;5040925;28;20057;-67
2021/09/29 02:19:02;;;;;;;20.25;11.85;;;;;;;12.47;100.00;101247.97;5037248;28;20515;-67
2021/09/29 02:21:30;;;;;;;22.50;12.60;;;;;;;12.53;100.00;101240.59;5042113;28;20407;-67
2021/09/29 02:23:57;;;;;;;22.23;11.55;;;;;;;12.58;100.00;101241.16;5037791;28;20072;-67
2021/09/29 02:26:24;;;;;;;19.23;11.77;;;;;;;12.67;100.00;101237.16;5021173;28;20037;-67
2021/09/29 02:28:51;;;;;;;18.90;11.50;;;;;;;12.70;100.00;101239.63;5042303;28;20100;-67
2021/09/29 02:31:19;;;;;;;20.20;12.07;;;;;;;12.75;100.00;101236.72;5037257;28;20052;-67
2021/09/29 02:33:46;;;;;;;21.25;12.43;;;;;;;12.73;100.00;101225.38;5034364;28;21226;-67
2021/09/29 02:36:13;;;;;;;24.35;13.48;;;;;;;12.76;100.00;101226.03;5042136;28;20063;-66
2021/09/29 02:38:42;;;;;;;28.48;15.20;;;;;;;12.78;100.00;101228.59;5038630;28;20131;-66
2021/09/29 02:41:11;;;;;;;26.85;13.60;;;;;;;12.72;100.00;101224.50;5033716;28;20049;-67
2021/09/29 02:43:38;;;;;;;27.23;16.17;;;;;;;12.80;100.00;101227.56;5040637;28;20053;-66
2021/09/29 02:46:06;;;;;;;41.25;17.65;;;;;;;12.83;100.00;101221.22;5038470;28;20071;-67
2021/09/29 02:48:33;;;;;;;42.83;18.30;;;;;;;12.86;100.00;101223.69;5040207;28;20131;-66
2021/09/29 02:51:01;;;;;;;29.83;17.42;;;;;;;12.87;100.00;101222.75;5041623;28;20073;-66
2021/09/29 02:53:29;;;;;;;36.42;17.10;;;;;;;12.79;100.00;101222.34;5038051;28;20065;-65
2021/09/29 02:56:00;;;;;;;50.13;18.88;;;;;;;12.82;100.00;101215.09;5035683;28;20262;-66
2021/09/29 02:58:27;;;;;;;46.50;19.15;;;;;;;12.86;100.00;101210.50;5042064;28;20175;-66
2021/09/29 03:00:58;;;;;;;50.67;21.15;;;;;;;12.86;100.00;101211.34;5037321;28;20055;-68
2021/09/29 03:03:26;;;;;;;42.28;19.15;;;;;;;12.91;100.00;101211.91;5043506;28;20076;-68
2021/09/29 03:05:53;;;;;;;41.90;20.95;;;;;;;12.97;100.00;101209.84;5019852;28;20060;-67
2021/09/29 03:08:20;;;;;;;48.42;20.00;;;;;;;12.91;100.00;101205.78;5023861;28;20919;-67
2021/09/29 03:10:47;;;;;;;53.95;21.95;;;;;;;12.94;100.00;101208.25;5042624;28;20599;-69
2021/09/29 03:13:14;;;;;;;49.10;21.70;;;;;;;12.86;100.00;101202.56;5040153;28;20124;-69
2021/09/29 03:15:41;;;;;;;65.82;21.42;;;;;;;13.00;100.00;101213.16;5044635;28;20087;-68
2021/09/29 03:18:09;;;;;;;62.10;22.88;;;;;;;12.88;100.00;101200.69;5042055;28;20079;-68
2021/09/29 03:20:36;;;;;;;56.45;20.60;;;;;;;12.83;100.00;101203.63;5036849;28;20053;-67
2021/09/29 03:23:04;;;;;;;55.28;22.55;;;;;;;12.89;100.00;101205.03;5042460;28;20414;-69
2021/09/29 03:25:31;;;;;;;53.67;20.65;;;;;;;12.92;100.00;101199.53;5039426;28;20081;-67
2021/09/29 03:27:58;;;;;;;69.15;23.08;;;;;;;12.94;100.00;101200.31;5043107;28;20800;-67
2021/09/29 03:30:26;;;;;;;75.25;24.75;;;;;;;12.84;100.00;101196.53;5037657;28;20061;-67
2021/09/29 03:32:53;;;;;;;72.68;22.88;;;;;;;12.92;100.00;101195.13;5040090;28;20067;-67
2021/09/29 03:35:20;;;;;;;62.78;23.08;;;;;;;12.93;100.00;101196.84;5040909;28;20053;-68
2021/09/29 03:37:47;;;;;;;67.45;22.88;;;;;;;12.93;100.00;101193.34;5035281;28;20049;-68
2021/09/29 03:40:15;;;;;;;62.47;23.70;;;;;;;12.98;100.00;101186.00;5036217;28;20172;-68
2021/09/29 03:42:43;;;;;;;70.63;24.80;;;;;;;13.03;100.00;101186.56;5036402;28;20379;-66
2021/09/29 03:45:12;;;;;;;68.57;24.58;;;;;;;13.04;100.00;101177.69;5048712;28;20064;-66
2021/09/29 03:47:43;;;;;;;70.90;23.77;;;;;;;13.11;100.00;101172.88;5048486;28;20109;-68
2021/09/29 03:50:11;;;;;;;73.95;26.85;;;;;;;13.12;100.00;101174.56;5046099;28;20528;-67
2021/09/29 03:52:39;;;;;;;74.43;26.38;;;;;;;13.07;100.00;101169.56;5047030;28;20061;-66
2021/09/29 03:55:07;;;;;;;70.22;26.15;;;;;;;13.08;100.00;101173.91;5042919;28;20132;-67
2021/09/29 03:57:34;;;;;;;64.15;26.88;;;;;;;13.19;100.00;101170.59;5045608;28;20113;-66
2021/09/29 04:00:10;;;;;;;75.00;27.23;;;;;;;13.14;100.00;101167.38;5040960;28;20056;-66
2021/09/29 04:02:38;;;;;;;69.50;25.33;;;;;;;13.21;100.00;101166.09;5041641;28;20052;-66
2021/09/29 04:05:06;;;;;;;68.60;27.48;;;;;;;13.20;100.00;101167.03;5041353;28;20688;-67
2021/09/29 04:07:34;;;;;;;68.05;26.13;;;;;;;13.25;100.00;101153.56;5027009;28;20136;-67
2021/09/29 04:10:02;;;;;;;85.22;28.23;;;;;;;13.18;100.00;101153.91;5039893;28;20128;-67
2021/09/29 04:12:29;;;;;;;79.68;30.63;;;;;;;13.20;100.00;101155.63;5043716;28;20065;-67
2021/09/29 04:14:56;;;;;;;92.05;30.58;;;;;;;13.17;100.00;101143.41;5046715;28;20061;-68
2021/09/29 04:17:24;;;;;;;86.68;31.25;;;;;;;13.11;100.00;101151.75;5048265;28;20499;-67
2021/09/29 04:19:51;;;;;;;103.28;32.72;;;;;;;13.11;100.00;101154.38;5041238;28;20055;-67
2021/09/29 04:22:18;;;;;;;97.97;31.63;;;;;;;13.14;100.00;101148.88;5045998;28;20169;-66
2021/09/29 04:24:46;;;;;;;97.32;31.95;;;;;;;13.10;100.00;101144.72;5040136;28;20065;-67
2021/09/29 04:27:14;;;;;;;91.15;32.08;;;;;;;13.07;100.00;101142.28;5036325;28;20132;-68
2021/09/29 04:29:41;;;;;;;108.43;36.88;;;;;;;13.09;100.00;101143.88;5026190;28;20044;-66
2021/09/29 04:32:09;;;;;;;114.95;35.35;;;;;;;13.12;100.00;101134.94;5043843;28;20120;-69
2021/09/29 04:34:37;;;;;;;112.47;33.83;;;;;;;13.15;100.00;101134.75;5040234;28;20063;-66
2021/09/29 04:37:05;;;;;;;117.25;36.22;;;;;;;13.12;100.00;101133.13;5045672;28;20513;-67
2021/09/29 04:39:32;;;;;;;119.50;38.72;;;;;;;13.17;100.00;101136.34;5045888;28;20053;-66
2021/09/29 04:41:59;;;;;;;125.93;38.72;;;;;;;13.10;100.00;101137.69;5042874;28;20145;-67
2021/09/29 04:44:26;;;;;;;113.07;37.15;;;;;;;13.12;100.00;101129.63;5036534;28;20144;-66
2021/09/29 04:46:54;;;;;;;110.85;38.67;;;;;;;13.17;100.00;101125.75;5061544;28;20466;-70
2021/09/29 04:49:21;;;;;;;125.43;38.53;;;;;;;13.15;100.00;101117.09;5035588;28;20553;-67
2021/09/29 04:51:49;;;;;;;115.45;38.83;;;;;;;13.26;100.00;101124.38;5040923;28;20462;-68
2021/09/29 04:54:17;;;;;;;117.13;40.05;;;;;;;13.21;100.00;101115.00;5038422;28;20912;-69
2021/09/29 04:56:45;;;;;;;106.47;35.75;;;;;;;13.28;100.00;101113.69;5042646;28;20053;-68
2021/09/29 04:59:12;;;;;;;108.78;37.92;;;;;;;13.28;100.00;101116.34;5047477;28;20067;-69
2021/09/29 05:01:40;;;;;;;116.95;37.63;;;;;;;13.18;100.00;101116.88;5053685;28;20049;-68
2021/09/29 05:04:08;;;;;;;92.38;35.20;;;;;;;13.32;100.00;101112.56;5042888;28;20051;-68
2021/09/29 05:06:36;;;;;;;100.38;33.83;;;;;;;13.30;100.00;101119.75;5048913;28;20537;-68
2021/09/29 05:09:04;;;;;;;91.35;34.72;;;;;;;13.37;100.00;101115.75;5049163;28;20483;-67
2021/09/29 05:11:49;;;;;;;88.10;31.73;;;;;;;13.41;100.00;101109.34;5031481;28;20037;-67
2021/09/29 05:14:17;;;;;;;83.43;32.13;;;;;;;13.46;100.00;101114.34;5026524;28;20535;-68
2021/09/29 05:16:47;;;;;;;90.70;32.72;;;;;;;13.51;100.00;101121.06;5051355;28;20052;-67
2021/09/29 05:19:14;;;;;;;82.93;32.55;;;;;;;13.58;100.00;101113.56;5037979;28;20053;-67
2021/09/29 05:21:41;;;;;;;84.80;30.65;;;;;;;13.60;100.00;101106.41;5053384;28;20403;-68
2021/09/29 05:24:09;;;;;;;81.88;31.92;;;;;;;13.56;100.00;101110.19;5048965;28;20087;-67
2021/09/29 05:26:36;;;;;;;69.97;27.85;;;;;;;13.57;100.00;101103.94;5046518;28;20053;-68
2021/09/29 05:29:06;;;;;;;80.38;31.63;;;;;;;13.60;100.00;101101.97;5051031;28;20072;-69
2021/09/29 05:31:34;;;;;;;82.20;32.63;;;;;;;13.63;100.00;101096.44;5031717;28;20045;-68
2021/09/29 05:34:01;;;;;;;76.68;30.88;;;;;;;13.68;100.00;101104.94;5035728;28;20041;-68
2021/09/29 05:36:28;;;;;;;80.32;32.67;;;;;;;13.72;100.00;101102.94;5050495;28;20056;-67
2021/09/29 05:38:56;;;;;;;75.25;30.60;;;;;;;13.70;100.00;101107.50;5048730;28;20144;-67
2021/09/29 05:41:23;;;;;;;82.50;31.90;;;;;;;13.71;100.00;101103.06;5038185;28;20063;-67
2021/09/29 05:43:50;;;;;;;85.82;32.90;;;;;;;13.70;100.00;101096.06;5040248;28;20166;-67
2021/09/29 05:46:17;;;;;;;75.70;33.13;;;;;;;13.79;100.00;101090.19;5042938;28;20131;-68
2021/09/29 05:48:44;;;;;;;81.20;32.65;;;;;;;13.85;100.00;101080.03;5047500;28;20131;-69
2021/09/29 05:51:11;;;;;;;76.10;31.35;;;;;;;13.85;100.00;101076.53;5045299;28;20136;-68
2021/09/29 05:53:38;;;;;;;77.78;30.45;;;;;;;13.86;100.00;101079.06;5041158;28;20049;-67
2021/09/29 05:56:07;;;;;;;80.47;31.77;;;;;;;13.87;100.00;101083.44;5044444;28;20095;-68
2021/09/29 05:58:34;;;;;;;70.85;31.00;;;;;;;13.99;100.00;101078.28;5043562;28;20386;-69
2021/09/29 06:01:02;;;;;;;73.28;31.73;;;;;;;14.01;100.00;101071.94;5044865;28;20132;-68
2021/09/29 06:03:29;;;;;;;77.80;31.33;;;;;;;13.98;100.00;101069.50;5042680;28;20140;-67
2021/09/29 06:05:57;;;;;;;71.55;32.35;;;;;;;14.00;100.00;101059.63;5047457;28;20261;-67
2021/09/29 06:08:24;;;;;;;77.15;34.92;;;;;;;13.83;100.00;101059.94;5046479;28;20758;-68
2021/09/29 06:10:51;;;;;;;80.07;33.70;;;;;;;13.87;100.00;101059.63;5045817;28;20087;-68
2021/09/29 06:13:19;;;;;;;71.75;32.08;;;;;;;13.98;100.00;101058.91;5045085;28;20511;-69
2021/09/29 06:15:46;;;;;;;76.00;32.97;;;;;;;14.00;100.00;101061.44;5022762;28;20067;-66
2021/09/29 06:18:14;;;;;;;72.47;32.90;;;;;;;14.05;100.00;101061.97;5039849;28;20084;-70
2021/09/29 06:20:45;;;;;;;73.22;33.20;;;;;;;14.03;100.00;101058.59;5045947;28;20053;-67
2021/09/29 06:23:14;;;;;;;65.88;31.08;;;;;;;14.02;100.00;101063.06;5039933;28;20136;-70
2021/09/29 06:25:41;;;;;;;64.80;32.60;;;;;;;14.00;100.00;101061.44;5049158;28;20127;-70
2021/09/29 06:28:10;;;;;;;72.30;33.22;;;;;;;14.12;100.00;101050.88;5044418;28;20059;-67
2021/09/29 06:30:37;;;;;;;73.63;34.25;;;;;;;14.12;100.00;101053.53;5029613;28;20053;-67
2021/09/29 06:33:04;;;;;;;73.43;34.95;;;;;;;14.09;100.00;101045.78;5041119;28;20060;-68
2021/09/29 06:35:31;;;;;;;78.05;36.80;;;;;;;14.23;100.00;101051.97;5044190;28;20052;-67
2021/09/29 06:38:00;;;;;;;72.47;34.67;;;;;;;14.35;100.00;101049.34;5048920;28;20787;-67
2021/09/29 06:40:28;;;;;;;77.28;35.05;;;;;;;14.33;100.00;101039.81;5044984;28;20148;-69
2021/09/29 06:42:55;;;;;;;73.00;36.38;;;;;;;14.32;100.00;101038.09;5048311;28;20140;-68
2021/09/29 06:45:22;;;;;;;70.85;35.28;;;;;;;14.43;100.00;101030.28;5039802;28;20041;-68
2021/09/29 06:47:50;;;;;;;72.88;36.17;;;;;;;14.41;100.00;101021.59;5035977;28;20525;-67
2021/09/29 06:50:18;;;;;;;67.40;36.45;;;;;;;14.48;100.00;101025.53;5041081;28;20531;-66
2021/09/29 06:52:53;;;;;;;;;;;;;;;14.52;100.00;101021.72;5047438;28;20182;-68
2021/09/29 06:55:20;;;;;;;75.47;36.38;;;;;;;14.62;100.00;101027.22;5043681;28;19927;-67
2021/09/29 06:57:47;;;;;;;80.43;35.95;;;;;;;14.63;100.00;101019.19;5046438;28;20135;-68
2021/09/29 07:00:15;;;;;;;82.43;38.03;;;;;;;14.61;100.00;101017.59;5045553;28;20135;-68
2021/09/29 07:02:44;;;;;;;75.38;35.83;;;;;;;14.62;100.00;101017.47;5045802;28;20069;-68
2021/09/29 07:05:12;;;;;;;66.65;35.70;;;;;;;14.67;100.00;101010.06;5043004;28;20392;-67
2021/09/29 07:07:39;;;;;;;64.90;35.75;;;;;;;14.72;100.00;100999.13;5047741;28;20053;-67
2021/09/29 07:10:08;;;;;;;72.53;37.88;;;;;;;14.80;100.00;100999.44;5044428;28;20048;-66
2021/09/29 07:12:36;;;;;;;68.57;35.90;;;;;;;14.94;100.00;101003.75;5046182;28;20140;-68
2021/09/29 07:15:04;;;;;;;62.40;35.03;;;;;;;14.97;100.00;100997.41;5042899;28;20668;-67
2021/09/29 07:17:32;;;;;;;65.75;36.15;;;;;;;14.96;100.00;100993.06;5047708;28;20052;-69
2021/09/29 07:19:59;;;;;;;65.57;34.42;;;;;;;15.03;100.00;100995.16;5049843;28;20463;-69
2021/09/29 07:22:27;;;;;;;64.20;35.90;;;;;;;15.11;100.00;100992.81;5047169;28;20049;-68
2021/09/29 07:24:55;;;;;;;61.70;36.05;;;;;;;15.03;100.00;100978.41;5048281;28;20131;-67
2021/09/29 07:27:22;;;;;;;65.82;36.35;;;;;;;15.06;100.00;100979.03;5049785;28;20102;-70
2021/09/29 07:29:50;;;;;;;61.75;34.50;;;;;;;15.08;100.00;100984.22;5048403;28;20184;-68
2021/09/29 07:32:17;;;;;;;58.13;32.05;;;;;;;15.06;100.00;100981.69;5049167;28;20041;-66
2021/09/29 07:34:45;;;;;;;63.97;32.42;;;;;;;15.07;100.00;100975.41;5046676;28;20132;-67
2021/09/29 07:37:12;;;;;;;65.80;35.72;;;;;;;15.13;100.00;100980.31;5047883;28;20132;-67
2021/09/29 07:39:39;;;;;;;55.17;33.72;;;;;;;15.17;100.00;100971.16;5045608;28;20507;-67
2021/09/29 07:42:06;;;;;;;52.40;31.70;;;;;;;15.28;100.00;100970.38;5049767;28;20120;-67
2021/09/29 07:44:33;;;;;;;60.47;34.17;;;;;;;15.27;100.00;100957.22;5047231;28;20122;-70
2021/09/29 07:47:02;;;;;;;57.75;31.88;;;;;;;15.34;100.00;100963.75;5047987;28;20160;-69
2021/09/29 07:49:30;;;;;;;51.53;31.63;;;;;;;15.40;100.00;100950.03;5045461;28;20053;-69
2021/09/29 07:51:58;;;;;;;58.58;33.83;;;;;;;15.41;100.00;100951.75;5054707;28;20653;-69
2021/09/29 07:54:26;;;;;;;53.70;32.03;;;;;;;15.36;100.00;100946.78;5046874;28;20119;-69
2021/09/29 07:56:54;;;;;;;52.38;31.55;;;;;;;15.32;100.00;100945.31;5056201;28;20102;-68
2021/09/29 07:59:23;;;;;;;52.78;32.45;;;;;;;15.13;100.00;100942.31;5048559;28;20140;-66
2021/09/29 08:01:50;;;;;;;60.17;34.53;;;;;;;15.10;100.00;100943.38;5052853;28;20548;-68
2021/09/29 08:04:21;;;;;;;63.05;34.70;;;;;;;15.03;100.00;100944.78;5044780;28;20136;-68
2021/09/29 08:06:48;;;;;;;53.90;32.97;;;;;;;15.09;100.00;100951.47;5049404;28;20569;-68
2021/09/29 08:09:16;;;;;;;57.88;34.38;;;;;;;15.24;100.00;100947.69;5045689;28;20146;-67
2021/09/29 08:11:43;;;;;;;60.70;33.92;;;;;;;15.26;100.00;100942.25;5063724;28;20690;-66
2021/09/29 08:14:11;;;;;;;55.35;31.02;;;;;;;15.22;100.00;100948.75;5044480;28;20070;-67
2021/09/29 08:16:38;;;;;;;54.70;33.47;;;;;;;15.16;100.00;100948.22;5051938;28;20235;-68
2021/09/29 08:19:05;;;;;;;53.53;32.72;;;;;;;15.30;100.00;100949.03;5045620;28;20570;-68
2021/09/29 08:21:34;;;;;;;56.35;33.03;;;;;;;15.23;100.00;100942.50;5047945;28;20080;-68
2021/09/29 08:24:07;;;;;;;61.50;34.35;;;;;;;15.26;100.00;100947.56;5051458;28;20572;-68
2021/09/29 08:29:38;;;;;;;54.00;32.97;;;;;;;15.32;100.00;100958.59;5042503;28;21729;-66
2021/09/29 08:32:15;;;;;;;53.88;33.08;;;;;;;15.38;100.00;100967.88;5050150;28;20056;-67
2021/09/29 08:34:51;;;;;;;57.72;34.58;;;;;;;15.34;100.00;100966.41;5042560;28;20124;-67
2021/09/29 08:37:27;;;;;;;59.10;34.88;;;;;;;15.34;100.00;100977.03;5047789;28;20117;-68
2021/09/29 08:42:28;;;;;;;63.55;34.50;;;;;;;15.27;100.00;100966.03;5051035;28;20081;-67
2021/09/29 08:45:08;;;;;;;58.15;36.47;;;;;;;15.18;100.00;100949.00;5046068;28;20041;-67
2021/09/29 08:47:43;;;;;;;56.85;35.33;;;;;;;15.25;100.00;100946.72;5046922;28;20151;-69
2021/09/29 08:50:17;;;;;;;58.08;37.45;;;;;;;15.29;100.00;100942.88;5046447;28;20489;-68
2021/09/29 08:52:57;;;;;;;59.25;37.83;;;;;;;15.41;100.00;100943.78;5046216;28;20528;-68
2021/09/29 09:17:28;;;;;;;73.55;41.63;;;;;;;14.97;100.00;100921.38;5045098;28;20565;-68
2021/09/29 09:19:58;;;;;;;79.10;43.38;;;;;;;14.98;100.00;100924.88;5032403;28;20084;-70
2021/09/29 09:22:32;;;;;;;80.22;42.78;;;;;;;14.98;100.00;100924.88;5053542;28;20044;-68
2021/09/29 09:25:00;;;;;;;70.65;40.95;;;;;;;14.93;100.00;100933.16;5049628;28;20090;-70
2021/09/29 09:27:37;;;;;;;71.10;41.33;;;;;;;14.93;100.00;100949.06;5045626;28;20080;-66
2021/09/29 09:30:06;;;;;;;76.60;43.72;;;;;;;14.95;100.00;100960.41;5049989;28;20105;-67
2021/09/29 09:32:42;;;;;;;77.97;43.88;;;;;;;14.79;100.00;100960.66;5051868;28;20048;-66
2021/09/29 09:35:11;;;;;;;95.97;48.28;;;;;;;14.87;100.00;100957.47;5042459;28;20044;-68
2021/09/29 09:37:40;;;;;;;113.05;53.05;;;;;;;14.88;100.00;100945.91;5047029;28;20854;-66
2021/09/29 09:40:10;;;;;;;101.75;52.25;;;;;;;14.87;100.00;100947.72;5046030;28;20049;-66
2021/09/29 09:42:39;;;;;;;85.57;48.45;;;;;;;14.87;100.00;100929.16;5047124;28;20436;-68
2021/09/29 09:45:08;;;;;;;106.20;56.72;;;;;;;14.73;100.00;100934.59;5045514;28;20446;-67
2021/09/29 09:47:46;;;;;;;89.85;47.63;;;;;;;14.74;100.00;100930.13;5050240;28;20072;-68
2021/09/29 09:50:24;;;;;;;102.15;48.97;;;;;;;14.68;100.00;100931.44;5042187;28;20128;-68
2021/09/29 09:52:52;;;;;;;97.70;48.65;;;;;;;14.71;100.00;100919.75;5049634;28;20106;-66
2021/09/29 09:55:22;;;;;;;101.95;51.55;;;;;;;14.68;100.00;100923.47;5024623;28;20136;-67
2021/09/29 09:57:55;;;;;;;104.43;51.63;;;;;;;14.84;100.00;100908.16;5049691;28;20609;-68
2021/09/29 10:00:27;;;;;;;89.93;49.08;;;;;;;14.82;100.00;100914.53;5046398;28;20143;-67
2021/09/29 10:02:55;;;;;;;91.70;48.50;;;;;;;14.80;100.00;100911.13;5048384;28;20060;-66
2021/09/29 10:05:26;;;;;;;93.68;48.35;;;;;;;14.90;100.00;100909.50;5047431;28;20090;-66
2021/09/29 10:07:54;;;;;;;80.13;45.47;;;;;;;14.86;100.00;100908.03;5049723;28;20084;-68
2021/09/29 10:27:13;;;;;;;;;;;;;;;14.87;100.00;100915.06;5040257;28;20454;-68
2021/09/29 10:29:50;;;;;;;79.68;43.63;;;;;;;14.79;100.00;100912.09;5039995;28;19978;-67
2021/09/29 10:32:26;;;;;;;79.30;43.90;;;;;;;14.91;100.00;100916.53;5012781;28;20149;-68
2021/09/29 10:40:16;;;;;;;72.28;42.20;;;;;;;14.83;100.00;100913.56;5050509;28;20053;-67
2021/09/29 10:43:28;;;;;;;64.50;38.72;;;;;;;14.77;100.00;100911.34;5043044;28;20052;-69
2021/09/29 10:46:03;;;;;;;63.58;37.90;;;;;;;14.80;100.00;100913.78;5043193;28;20119;-68
2021/09/29 10:48:45;;;;;;;66.40;38.67;;;;;;;14.83;100.00;100903.81;5052148;23;20064;-63
2021/09/29 10:51:37;;;;;;;59.95;35.30;;;;;;;14.79;100.00;100901.50;5033685;28;20136;-68
2021/09/29 11:06:18;;;;;;;48.97;32.83;;;;;;;14.67;100.00;100904.06;5027225;28;20502;-63
2021/09/29 11:28:46;;;;;;;38.67;26.27;;;;;;;14.32;100.00;100893.31;5016500;28;20122;-63
2021/09/29 11:31:24;;;;;;;35.50;24.73;;;;;;;14.25;100.00;100891.19;5027348;28;20045;-64
2021/09/29 11:34:04;;;;;;;37.08;26.05;;;;;;;14.28;100.00;100891.81;5023335;28;20053;-63
2021/09/29 12:12:30;;;;;;;38.78;25.40;;;;;;;14.07;100.00;100872.97;5021600;28;20081;-63
2021/09/29 12:15:10;;;;;;;40.92;26.70;;;;;;;14.12;100.00;100875.31;5013916;28;20148;-64
2021/09/29 12:17:40;;;;;;;42.20;25.73;;;;;;;14.30;100.00;100868.72;5017818;28;20141;-64
2021/09/29 12:22:52;;;;;;;37.97;26.17;;;;;;;14.73;100.00;100860.41;5038643;28;20041;-63
2021/09/29 12:25:28;;;;;;;38.42;25.88;;;;;;;15.00;100.00;100852.22;5021808;28;20084;-62
2021/09/29 12:28:17;;;;;;;36.17;23.42;;;;;;;15.25;100.00;100851.22;5023804;28;20046;-64
2021/09/29 12:30:56;;;;;;;32.58;23.38;;;;;;;15.46;100.00;100859.41;5020587;28;20692;-63
2021/09/29 12:36:30;;;;;;;28.38;21.27;;;;;;;15.75;100.00;100854.53;4993528;28;20148;-63
2021/09/29 12:38:58;;;;;;;31.60;23.75;;;;;;;15.88;100.00;100846.47;5024293;28;20527;-64
2021/09/29 12:41:28;;;;;;;31.92;21.50;;;;;;;15.95;100.00;100850.34;5028591;28;20609;-65
2021/09/29 12:44:03;;;;;;;29.67;22.52;;;;;;;15.92;100.00;100840.81;5027310;28;20065;-64
2021/09/29 12:46:34;;;;;;;29.83;21.42;;;;;;;16.11;100.00;100842.88;5020779;28;20436;-63
2021/09/29 12:49:09;;;;;;;31.52;22.95;;;;;;;16.28;100.00;100838.88;5020605;28;20141;-64
2021/09/29 12:51:41;;;;;;;30.15;22.23;;;;;;;16.46;100.00;100840.06;5026004;28;20422;-64
2021/09/29 12:54:09;;;;;;;31.50;21.92;;;;;;;16.60;100.00;100844.28;5023493;28;20056;-64
2021/09/29 12:56:37;;;;;;;28.38;20.67;;;;;;;16.65;100.00;100844.75;5020458;28;20123;-63
2021/09/29 12:59:04;;;;;;;26.05;19.77;;;;;;;16.78;100.00;100846.44;5025840;28;20128;-65
2021/09/29 13:01:31;;;;;;;26.73;19.38;;;;;;;16.87;100.00;100848.34;5018659;28;20053;-64
2021/09/29 13:03:59;;;;;;;23.00;18.08;;;;;;;17.05;100.00;100853.97;5029932;28;20049;-64
2021/09/29 13:06:26;;;;;;;24.00;18.70;;;;;;;17.10;100.00;100843.78;5033765;28;20046;-66
2021/09/29 13:08:53;;;;;;;22.23;17.85;;;;;;;17.08;100.00;100853.72;5010469;28;20141;-64
2021/09/29 13:11:21;;;;;;;20.23;16.85;;;;;;;17.28;100.00;100847.59;5023976;28;20049;-64
2021/09/29 13:13:48;;;;;;;20.13;15.73;;;;;;;17.43;100.00;100840.16;5007886;28;20115;-64
2021/09/29 13:16:15;;;;;;;18.45;15.43;;;;;;;17.59;100.00;100845.84;5020199;28;20054;-63